createdAt,value
2022-07-25T00:01:11.907Z,7.05
2022-07-25T00:03:39.151Z,7.97
2022-07-25T00:06:06.798Z,8.25
2022-07-25T00:08:40.067Z,8.48
2022-07-25T00:11:06.641Z,7.93
2022-07-25T00:13:33.223Z,7.75
2022-07-25T00:15:59.827Z,8.20
2022-07-25T00:18:26.390Z,8.32
2022-07-25T00:20:52.954Z,8.50
2022-07-25T00:23:19.472Z,7.40
2022-07-25T00:25:45.945Z,7.28
2022-07-25T00:28:12.926Z,7.60
2022-07-25T00:30:39.409Z,7.82
2022-07-25T00:33:06.080Z,7.82
2022-07-25T00:35:32.717Z,8.02
2022-07-25T00:37:59.213Z,7.65
2022-07-25T00:40:25.764Z,7.93
2022-07-25T00:42:52.355Z,7.85
2022-07-25T00:45:18.856Z,7.30
2022-07-25T00:47:45.332Z,7.85
2022-07-25T00:50:11.889Z,7.57
2022-07-25T00:52:38.588Z,7.95
2022-07-25T00:55:05.964Z,7.72
2022-07-25T00:57:32.462Z,8.05
2022-07-25T00:59:59.022Z,7.18
2022-07-25T01:02:25.580Z,8.10
2022-07-25T01:04:52.080Z,7.78
2022-07-25T01:07:18.597Z,8.00
2022-07-25T01:09:45.742Z,7.85
2022-07-25T01:12:12.259Z,7.70
2022-07-25T01:14:39.126Z,8.13
2022-07-25T01:17:05.697Z,7.75
2022-07-25T01:19:32.309Z,7.75
2022-07-25T01:21:58.942Z,8.05
2022-07-25T01:24:25.539Z,7.85
2022-07-25T01:26:52.206Z,7.72
2022-07-25T01:29:18.880Z,8.07
2022-07-25T01:31:45.351Z,8.93
2022-07-25T01:34:12.101Z,7.88
2022-07-25T01:36:38.664Z,7.68
2022-07-25T01:39:05.170Z,7.72
2022-07-25T01:41:31.651Z,7.78
2022-07-25T01:43:58.255Z,7.07
2022-07-25T01:46:24.808Z,8.30
2022-07-25T01:48:51.354Z,8.00
2022-07-25T01:51:20.579Z,8.00
2022-07-25T01:53:47.841Z,7.55
2022-07-25T01:56:14.879Z,7.63
2022-07-25T01:58:41.387Z,8.38
2022-07-25T02:01:07.951Z,7.22
2022-07-25T02:03:34.571Z,8.77
2022-07-25T02:06:04.497Z,7.70
2022-07-25T02:08:31.537Z,8.35
2022-07-25T02:10:58.963Z,7.93
2022-07-25T02:13:27.197Z,8.02
2022-07-25T02:15:53.934Z,8.02
2022-07-25T02:18:20.539Z,8.30
2022-07-25T02:20:47.576Z,7.57
2022-07-25T02:23:14.114Z,7.70
2022-07-25T02:25:40.665Z,8.85
2022-07-25T02:28:07.194Z,7.57
2022-07-25T02:30:37.263Z,8.73
2022-07-25T02:33:03.912Z,7.80
2022-07-25T02:35:30.468Z,8.63
2022-07-25T02:37:56.972Z,7.82
2022-07-25T02:40:23.516Z,8.48
2022-07-25T02:42:50.005Z,9.00
2022-07-25T02:45:16.642Z,8.32
2022-07-25T02:47:43.147Z,7.72
2022-07-25T02:50:09.942Z,8.95
2022-07-25T02:52:41.582Z,8.05
2022-07-25T02:55:09.896Z,8.38
2022-07-25T02:57:36.683Z,7.78
2022-07-25T03:00:06.178Z,8.70
2022-07-25T03:02:32.691Z,8.55
2022-07-25T03:04:59.228Z,8.40
2022-07-25T03:07:25.777Z,8.85
2022-07-25T03:09:52.351Z,8.60
2022-07-25T03:12:18.925Z,8.93
2022-07-25T03:14:45.402Z,9.10
2022-07-25T03:17:12.020Z,9.02
2022-07-25T03:19:38.628Z,8.13
2022-07-25T03:22:05.214Z,8.63
2022-07-25T03:24:31.787Z,8.73
2022-07-25T03:26:58.333Z,8.10
2022-07-25T03:29:25.023Z,8.98
2022-07-25T03:31:51.541Z,9.25
2022-07-25T03:34:18.114Z,8.90
2022-07-25T03:36:44.624Z,8.45
2022-07-25T03:39:11.143Z,8.40
2022-07-25T03:41:37.628Z,8.82
2022-07-25T03:44:04.748Z,8.95
2022-07-25T03:46:31.538Z,8.77
2022-07-25T03:48:58.265Z,8.60
2022-07-25T03:51:24.824Z,8.20
2022-07-25T03:54:03.399Z,8.68
2022-07-25T03:56:43.231Z,8.80
2022-07-25T03:59:12.283Z,8.13
2022-07-25T04:01:38.930Z,8.30
2022-07-25T04:04:05.675Z,8.73
2022-07-25T04:06:32.608Z,8.73
2022-07-25T04:08:59.392Z,8.27
2022-07-25T04:11:25.953Z,8.27
2022-07-25T04:13:52.492Z,7.63
2022-07-25T04:16:22.421Z,8.10
2022-07-25T04:18:50.634Z,8.48
2022-07-25T04:21:18.315Z,8.48
2022-07-25T04:23:44.889Z,7.75
2022-07-25T04:26:11.457Z,9.63
2022-07-25T04:28:37.910Z,8.63
2022-07-25T04:31:04.657Z,8.38
2022-07-25T04:33:31.130Z,8.65
2022-07-25T04:35:57.620Z,7.85
2022-07-25T04:38:24.098Z,8.00
2022-07-25T04:40:50.645Z,8.63
2022-07-25T04:43:17.147Z,8.10
2022-07-25T04:45:43.820Z,8.13
2022-07-25T04:48:10.423Z,8.57
2022-07-25T04:50:37.074Z,7.90
2022-07-25T04:53:04.313Z,8.45
2022-07-25T04:55:32.350Z,8.45
2022-07-25T04:58:00.198Z,7.70
2022-07-25T05:00:26.977Z,7.75
2022-07-25T05:02:53.638Z,7.97
2022-07-25T05:05:21.696Z,7.63
2022-07-25T05:07:49.879Z,8.18
2022-07-25T05:10:16.644Z,7.88
2022-07-25T05:12:43.152Z,7.70
2022-07-25T05:15:10.109Z,7.72
2022-07-25T05:17:36.592Z,7.15
2022-07-25T05:20:03.581Z,7.80
2022-07-25T05:22:30.319Z,6.70
2022-07-25T05:24:56.852Z,7.35
2022-07-25T05:27:23.342Z,6.90
2022-07-25T05:29:49.883Z,7.82
2022-07-25T05:32:16.393Z,7.43
2022-07-25T05:34:42.894Z,7.35
2022-07-25T05:37:09.360Z,8.25
2022-07-25T05:39:37.412Z,7.28
2022-07-25T05:42:04.058Z,7.63
2022-07-25T05:44:30.582Z,7.28
2022-07-25T05:46:57.102Z,6.97
2022-07-25T05:49:23.643Z,8.32
2022-07-25T05:51:50.441Z,6.95
2022-07-25T05:54:16.958Z,8.10
2022-07-25T05:56:43.522Z,7.20
2022-07-25T05:59:09.991Z,7.60
2022-07-25T06:01:36.704Z,6.93
2022-07-25T06:04:03.522Z,7.30
2022-07-25T06:06:32.636Z,7.18
2022-07-25T06:08:59.137Z,7.28
2022-07-25T06:11:30.934Z,6.93
2022-07-25T06:16:24.943Z,6.80
2022-07-25T06:18:51.533Z,7.55
2022-07-25T06:21:17.997Z,6.63
2022-07-25T06:23:44.542Z,6.75
2022-07-25T06:26:11.309Z,6.80
2022-07-25T06:28:38.526Z,6.60
2022-07-25T06:31:05.312Z,6.93
2022-07-25T06:33:31.890Z,7.18
2022-07-25T06:35:58.382Z,6.90
2022-07-25T06:38:24.880Z,6.30
2022-07-25T06:40:51.405Z,7.43
2022-07-25T06:43:17.994Z,6.70
2022-07-25T06:45:47.363Z,7.65
2022-07-25T06:48:17.678Z,6.80
2022-07-25T06:50:44.632Z,7.50
2022-07-25T06:53:11.217Z,7.18
2022-07-25T06:55:37.741Z,7.03
2022-07-25T06:58:04.421Z,7.38
2022-07-25T07:00:30.919Z,6.90
2022-07-25T07:03:01.269Z,6.82
2022-07-25T07:05:33.921Z,7.88
2022-07-25T07:08:00.515Z,7.35
2022-07-25T07:10:28.247Z,7.07
2022-07-25T07:13:07.827Z,6.50
2022-07-25T07:15:34.846Z,7.00
2022-07-25T07:18:01.448Z,7.88
2022-07-25T07:20:28.252Z,6.60
2022-07-25T07:22:54.777Z,8.70
2022-07-25T07:25:24.120Z,7.35
2022-07-25T07:27:54.869Z,7.15
2022-07-25T07:30:24.439Z,6.95
2022-07-25T07:32:53.859Z,7.05
2022-07-25T07:35:20.709Z,6.25
2022-07-25T07:37:47.466Z,7.57
2022-07-25T07:40:17.060Z,6.53
2022-07-25T07:42:47.815Z,7.10
2022-07-25T07:45:19.711Z,6.20
2022-07-25T07:47:48.730Z,6.60
2022-07-25T07:50:17.738Z,7.22
2022-07-25T07:52:45.410Z,7.45
2022-07-25T07:55:31.381Z,7.20
2022-07-25T07:57:59.559Z,6.93
2022-07-25T08:00:28.120Z,6.85
2022-07-25T08:02:55.428Z,7.10
2022-07-25T08:05:25.895Z,6.10
2022-07-25T08:07:53.443Z,7.20
2022-07-25T08:10:27.251Z,7.13
2022-07-25T08:12:53.865Z,7.05
2022-07-25T08:15:21.790Z,6.60
2022-07-25T08:17:50.241Z,6.90
2022-07-25T08:20:36.980Z,6.72
2022-07-25T08:23:05.524Z,6.75
2022-07-25T08:25:32.224Z,6.65
2022-07-25T08:27:59.157Z,6.85
2022-07-25T08:30:25.765Z,6.90
2022-07-25T08:33:01.115Z,6.63
2022-07-25T08:35:28.838Z,6.50
2022-07-25T08:37:55.885Z,6.07
2022-07-25T08:40:25.560Z,6.18
2022-07-25T08:42:52.574Z,6.55
2022-07-25T08:45:20.354Z,6.10
2022-07-25T08:47:48.743Z,6.00
2022-07-25T08:50:19.048Z,6.38
2022-07-25T08:52:47.810Z,6.30
2022-07-25T08:55:20.034Z,6.40
2022-07-25T08:57:52.599Z,6.13
2022-07-25T09:00:25.047Z,6.10
2022-07-25T09:02:59.581Z,5.50
2022-07-25T09:05:28.069Z,5.78
2022-07-25T09:07:56.295Z,5.97
2022-07-25T09:10:28.380Z,5.88
2022-07-25T09:12:54.834Z,5.15
2022-07-25T09:15:32.887Z,5.20
2022-07-25T09:18:02.441Z,5.18
2022-07-25T09:20:37.860Z,5.28
2022-07-25T09:23:04.506Z,5.45
2022-07-25T09:25:31.159Z,5.28
2022-07-25T09:28:12.096Z,5.40
2022-07-25T09:30:39.658Z,5.95
2022-07-25T09:33:06.201Z,5.15
2022-07-25T09:35:36.218Z,5.72
2022-07-25T09:38:09.938Z,5.70
2022-07-25T09:40:36.430Z,5.22
2022-07-25T09:43:03.004Z,5.50
2022-07-25T09:45:31.583Z,5.40
2022-07-25T09:48:04.333Z,4.68
2022-07-25T09:50:32.950Z,4.80
2022-07-25T09:53:02.415Z,4.97
2022-07-25T09:55:30.000Z,3.58
2022-07-25T09:57:56.617Z,3.55
2022-07-25T10:00:27.454Z,3.97
2022-07-25T10:03:24.735Z,4.40
2022-07-25T10:06:03.424Z,4.18
2022-07-25T10:08:35.583Z,4.05
2022-07-25T10:11:02.163Z,3.75
2022-07-25T10:13:34.173Z,4.10
2022-07-25T10:16:01.441Z,3.95
2022-07-25T10:18:30.145Z,4.40
2022-07-25T10:21:24.831Z,4.63
2022-07-25T10:24:04.960Z,4.88
2022-07-25T10:26:33.321Z,4.65
2022-07-25T10:29:01.593Z,4.03
2022-07-25T10:31:37.586Z,4.40
2022-07-25T10:34:05.591Z,4.32
2022-07-25T10:36:50.998Z,4.50
2022-07-25T10:39:19.316Z,4.60
2022-07-25T10:41:55.703Z,3.78
2022-07-25T10:44:22.477Z,4.10
2022-07-25T10:46:50.151Z,4.57
2022-07-25T10:49:31.140Z,4.43
2022-07-25T10:52:03.613Z,4.70
2022-07-25T10:54:38.341Z,4.25
2022-07-25T10:57:06.926Z,4.30
2022-07-25T10:59:39.254Z,4.18
2022-07-25T11:02:08.494Z,4.20
2022-07-25T11:04:36.276Z,4.55
2022-07-25T11:07:14.263Z,3.95
2022-07-25T11:09:42.246Z,4.35
2022-07-25T11:12:09.645Z,4.35
2022-07-25T11:14:41.230Z,3.58
2022-07-25T11:17:15.420Z,4.35
2022-07-25T11:19:44.210Z,4.18
2022-07-25T11:22:10.909Z,3.90
2022-07-25T11:24:42.104Z,3.88
2022-07-25T11:27:20.234Z,4.07
2022-07-25T11:29:46.795Z,3.40
2022-07-25T11:32:14.120Z,3.83
2022-07-25T11:34:43.630Z,4.43
2022-07-25T11:37:12.178Z,4.00
2022-07-25T11:39:40.668Z,4.30
2022-07-25T11:42:08.761Z,4.47
2022-07-25T11:44:45.514Z,4.50
2022-07-25T11:47:31.507Z,3.97
2022-07-25T11:50:03.851Z,4.07
2022-07-25T11:52:31.438Z,3.97
2022-07-25T11:55:01.831Z,4.32
2022-07-25T11:57:34.543Z,4.35
2022-07-25T12:00:03.651Z,4.70
2022-07-25T12:02:36.776Z,4.70
2022-07-25T12:05:05.442Z,4.90
2022-07-25T12:07:37.955Z,4.63
2022-07-25T12:10:06.094Z,4.95
2022-07-25T12:12:53.795Z,4.82
2022-07-25T12:15:24.695Z,4.65
2022-07-25T12:17:52.770Z,4.50
2022-07-25T12:20:21.461Z,4.60
2022-07-25T12:22:49.978Z,4.68
2022-07-25T12:25:16.730Z,4.72
2022-07-25T12:27:43.534Z,4.68
2022-07-25T12:30:11.478Z,4.50
2022-07-25T12:32:38.382Z,5.00
2022-07-25T12:35:07.024Z,5.22
2022-07-25T12:37:33.751Z,5.07
2022-07-25T12:40:00.570Z,5.40
2022-07-25T12:42:28.814Z,4.75
2022-07-25T12:44:55.813Z,5.35
2022-07-25T12:47:23.690Z,5.28
2022-07-25T12:49:50.309Z,5.38
2022-07-25T12:52:17.306Z,4.65
2022-07-25T12:54:44.435Z,4.85
2022-07-25T12:57:11.790Z,4.57
2022-07-25T12:59:38.739Z,4.85
2022-07-25T13:02:06.254Z,4.85
2022-07-25T13:04:32.865Z,4.72
2022-07-25T13:06:59.609Z,5.15
2022-07-25T13:09:26.468Z,4.57
2022-07-25T13:11:53.049Z,4.30
2022-07-25T13:14:20.033Z,4.40
2022-07-25T13:16:48.003Z,4.50
2022-07-25T13:19:15.684Z,4.72
2022-07-25T13:21:43.452Z,5.05
2022-07-25T13:24:11.227Z,4.88
2022-07-25T13:26:38.761Z,4.90
2022-07-25T13:29:11.590Z,5.45
2022-07-25T13:31:41.060Z,4.80
2022-07-25T13:34:08.920Z,4.90
2022-07-25T13:36:37.977Z,5.18
2022-07-25T13:39:05.565Z,5.60
2022-07-25T13:41:32.795Z,4.75
2022-07-25T13:43:59.527Z,5.45
2022-07-25T13:46:26.183Z,5.15
2022-07-25T13:48:52.917Z,5.93
2022-07-25T13:51:19.413Z,5.45
2022-07-25T13:53:45.965Z,6.35
2022-07-25T13:56:13.402Z,5.90
2022-07-25T13:58:40.681Z,6.78
2022-07-25T14:01:08.659Z,7.30
2022-07-25T14:03:36.792Z,7.82
2022-07-25T14:06:04.599Z,7.25
2022-07-25T14:08:31.689Z,7.07
2022-07-25T14:10:58.278Z,7.70
2022-07-25T14:13:24.803Z,6.45
2022-07-25T14:15:51.440Z,5.90
2022-07-25T14:18:17.980Z,6.22
2022-07-25T14:20:44.570Z,6.50
2022-07-25T14:23:11.073Z,5.72
2022-07-25T14:25:38.414Z,6.00
2022-07-25T14:28:04.953Z,5.65
2022-07-25T14:30:31.533Z,5.68
2022-07-25T14:32:58.007Z,5.85
2022-07-25T14:35:28.792Z,6.13
2022-07-25T14:37:58.468Z,5.53
2022-07-25T14:40:24.970Z,5.43
2022-07-25T14:42:51.464Z,5.50
2022-07-25T14:45:18.854Z,5.28
2022-07-25T14:47:45.318Z,5.70
2022-07-25T14:50:11.883Z,5.40
2022-07-25T14:52:38.401Z,6.25
2022-07-25T14:55:05.822Z,5.70
2022-07-25T14:57:32.444Z,5.85
2022-07-25T15:00:01.835Z,6.00
2022-07-25T15:02:28.453Z,5.53
2022-07-25T15:04:55.278Z,5.60
2022-07-25T15:07:22.058Z,6.03
2022-07-25T15:09:48.509Z,5.90
2022-07-25T15:12:16.742Z,5.57
2022-07-25T15:14:43.909Z,5.70
2022-07-25T15:17:10.659Z,5.63
2022-07-25T15:19:37.181Z,5.72
2022-07-25T15:22:03.693Z,5.90
2022-07-25T15:24:36.331Z,5.18
2022-07-25T15:27:10.877Z,6.40
2022-07-25T15:29:37.417Z,5.10
2022-07-25T15:32:05.529Z,5.28
2022-07-25T15:34:33.593Z,5.07
2022-07-25T15:37:00.096Z,5.32
2022-07-25T15:39:26.733Z,5.20
2022-07-25T15:41:53.428Z,5.55
2022-07-25T15:44:19.951Z,5.30
2022-07-25T15:46:46.695Z,5.45
2022-07-25T15:49:15.473Z,5.10
2022-07-25T15:51:42.161Z,4.55
2022-07-25T15:54:08.967Z,5.30
2022-07-25T15:56:35.647Z,5.07
2022-07-25T15:59:02.187Z,5.40
2022-07-25T16:01:28.797Z,4.85
2022-07-25T16:03:59.715Z,5.28
2022-07-25T16:06:27.313Z,4.90
2022-07-25T16:08:53.977Z,5.15
2022-07-25T16:11:26.624Z,5.15
2022-07-25T16:13:53.832Z,4.80
2022-07-25T16:16:22.055Z,4.53
2022-07-25T16:18:48.799Z,4.32
2022-07-25T16:21:15.517Z,4.22
2022-07-25T16:23:45.596Z,4.72
2022-07-25T16:26:12.672Z,4.40
2022-07-25T16:28:40.499Z,4.70
2022-07-25T16:31:07.221Z,4.57
2022-07-25T16:33:33.873Z,4.35
2022-07-25T16:36:00.460Z,4.70
2022-07-25T16:38:28.753Z,4.70
2022-07-25T16:40:55.599Z,4.22
2022-07-25T16:43:22.150Z,4.82
2022-07-25T16:45:48.686Z,4.55
2022-07-25T16:48:15.197Z,4.35
2022-07-25T16:50:41.714Z,4.50
2022-07-25T16:53:08.249Z,4.15
2022-07-25T16:55:34.784Z,4.63
2022-07-25T16:58:01.290Z,4.60
2022-07-25T17:00:27.802Z,4.43
2022-07-25T17:02:54.289Z,4.80
2022-07-25T17:05:21.056Z,4.55
2022-07-25T17:07:48.643Z,4.55
2022-07-25T17:10:15.138Z,4.72
2022-07-25T17:12:41.654Z,4.90
2022-07-25T17:15:09.069Z,4.53
2022-07-25T17:17:35.674Z,4.90
2022-07-25T17:20:02.158Z,4.60
2022-07-25T17:22:28.645Z,4.30
2022-07-25T17:24:55.114Z,4.45
2022-07-25T17:27:21.837Z,4.45
2022-07-25T17:29:48.382Z,4.30
2022-07-25T17:32:14.876Z,4.57
2022-07-25T17:34:41.481Z,4.43
2022-07-25T17:37:08.149Z,4.18
2022-07-25T17:39:34.936Z,4.90
2022-07-25T17:42:01.970Z,4.22
2022-07-25T17:44:28.510Z,4.60
2022-07-25T17:46:55.586Z,4.50
2022-07-25T17:49:22.202Z,4.78
2022-07-25T17:51:48.782Z,4.32
2022-07-25T17:54:15.358Z,4.95
2022-07-25T17:56:42.250Z,4.53
2022-07-25T17:59:08.794Z,4.35
2022-07-25T18:01:35.578Z,4.63
2022-07-25T18:04:02.153Z,4.13
2022-07-25T18:06:30.005Z,4.38
2022-07-25T18:08:57.121Z,4.55
2022-07-25T18:11:23.757Z,4.30
2022-07-25T18:13:50.225Z,3.83
2022-07-25T18:16:16.776Z,4.68
2022-07-25T18:18:43.415Z,4.28
2022-07-25T18:21:09.950Z,3.70
2022-07-25T18:23:36.611Z,3.55
2022-07-25T18:26:03.710Z,3.90
2022-07-25T18:28:30.255Z,3.47
2022-07-25T18:30:56.792Z,3.75
2022-07-25T18:33:23.376Z,3.85
2022-07-25T18:35:51.404Z,3.28
2022-07-25T18:38:17.920Z,3.30
2022-07-25T18:40:44.490Z,3.13
2022-07-25T18:43:12.373Z,3.40
2022-07-25T18:45:39.062Z,2.70
2022-07-25T18:48:06.626Z,3.17
2022-07-25T18:50:33.600Z,2.72
2022-07-25T18:53:00.223Z,3.30
2022-07-25T18:55:26.840Z,2.90
2022-07-25T18:57:53.465Z,3.03
2022-07-25T19:00:20.103Z,3.60
2022-07-25T19:02:46.674Z,3.15
2022-07-25T19:05:13.422Z,2.88
2022-07-25T19:07:40.477Z,2.60
2022-07-25T19:10:07.274Z,2.42
2022-07-25T19:12:33.881Z,2.60
2022-07-25T19:15:00.408Z,2.45
2022-07-25T19:17:26.969Z,2.72
2022-07-25T19:19:53.621Z,2.47
2022-07-25T19:22:20.775Z,2.30
2022-07-25T19:24:48.131Z,2.40
2022-07-25T19:27:14.782Z,2.40
2022-07-25T19:29:42.418Z,2.30
2022-07-25T19:32:09.135Z,2.47
2022-07-25T19:34:35.774Z,2.97
2022-07-25T19:37:03.828Z,2.38
2022-07-25T19:39:30.343Z,2.47
2022-07-25T19:41:56.894Z,2.42
2022-07-25T19:44:23.419Z,2.22
2022-07-25T19:46:49.947Z,2.60
2022-07-25T19:49:16.822Z,2.20
2022-07-25T19:51:43.469Z,2.20
2022-07-25T19:54:10.482Z,2.13
2022-07-25T19:56:37.477Z,2.78
2022-07-25T19:59:04.001Z,2.20
2022-07-25T20:01:34.112Z,2.50
2022-07-25T20:04:01.330Z,2.30
2022-07-25T20:06:27.989Z,2.25
2022-07-25T20:08:54.447Z,2.10
2022-07-25T20:11:20.962Z,2.33
2022-07-25T20:13:47.494Z,2.20
2022-07-25T20:16:14.039Z,2.50
2022-07-25T20:18:40.578Z,2.42
2022-07-25T20:21:07.834Z,2.28
2022-07-25T20:23:34.340Z,2.10
2022-07-25T20:26:02.188Z,2.40
2022-07-25T20:28:29.001Z,2.63
2022-07-25T20:30:57.239Z,1.70
2022-07-25T20:33:26.989Z,2.10
2022-07-25T20:35:54.945Z,2.00
2022-07-25T20:38:23.069Z,2.22
2022-07-25T20:40:50.685Z,2.17
2022-07-25T20:43:17.841Z,1.95
2022-07-25T20:45:44.908Z,2.00
2022-07-25T20:48:11.561Z,2.00
2022-07-25T20:50:38.561Z,2.08
2022-07-25T20:53:06.335Z,2.00
2022-07-25T20:55:33.714Z,2.15
2022-07-25T20:58:00.839Z,1.83
2022-07-25T21:00:28.751Z,1.42
2022-07-25T21:02:55.379Z,1.63
2022-07-25T21:05:22.228Z,2.20
2022-07-25T21:07:48.806Z,2.17
2022-07-25T21:10:15.390Z,1.77
2022-07-25T21:12:42.551Z,1.70
2022-07-25T21:15:09.433Z,1.73
2022-07-25T21:17:35.946Z,2.00
2022-07-25T21:20:03.068Z,2.33
2022-07-25T21:22:29.785Z,1.63
2022-07-25T21:24:56.304Z,1.70
2022-07-25T21:27:23.173Z,1.83
2022-07-25T21:29:49.686Z,1.83
2022-07-25T21:32:17.294Z,1.50
2022-07-25T21:34:45.534Z,1.55
2022-07-25T21:37:12.879Z,1.67
2022-07-25T21:39:39.415Z,1.88
2022-07-25T21:42:09.681Z,1.60
2022-07-25T21:44:38.465Z,1.55
2022-07-25T21:47:05.050Z,1.50
2022-07-25T21:49:49.970Z,1.50
2022-07-25T21:52:16.561Z,1.60
2022-07-25T21:54:43.442Z,1.55
2022-07-25T21:57:13.596Z,1.65
2022-07-25T21:59:42.561Z,1.70
2022-07-25T22:02:09.348Z,1.85
2022-07-25T22:04:35.961Z,1.80
2022-07-25T22:07:03.029Z,2.58
2022-07-25T22:09:29.537Z,1.88
2022-07-25T22:11:56.900Z,1.80
2022-07-25T22:14:23.771Z,1.45
2022-07-25T22:16:50.518Z,1.58
2022-07-25T22:19:20.774Z,1.90
2022-07-25T22:21:48.758Z,1.30
2022-07-25T22:24:15.242Z,1.63
2022-07-25T22:26:42.006Z,1.80
2022-07-25T22:29:09.105Z,1.38
2022-07-25T22:31:38.608Z,1.45
2022-07-25T22:34:05.379Z,1.50
2022-07-25T22:36:32.112Z,1.85
2022-07-25T22:38:58.624Z,1.35
2022-07-25T22:41:25.207Z,1.90
2022-07-25T22:43:58.088Z,1.60
2022-07-25T22:46:27.067Z,1.65
2022-07-25T22:48:53.650Z,1.40
2022-07-25T22:51:20.197Z,1.70
2022-07-25T22:53:46.825Z,1.75
2022-07-25T22:56:13.367Z,1.50
2022-07-25T22:58:39.958Z,1.20
2022-07-25T23:01:06.735Z,1.73
2022-07-25T23:03:33.575Z,1.83
2022-07-25T23:06:00.227Z,1.50
2022-07-25T23:08:27.209Z,1.25
2022-07-25T23:10:53.768Z,1.40
2022-07-25T23:13:20.430Z,1.20
2022-07-25T23:15:51.284Z,1.65
2022-07-25T23:18:18.720Z,1.55
2022-07-25T23:20:45.359Z,1.17
2022-07-25T23:23:12.951Z,1.20
2022-07-25T23:25:39.821Z,1.00
2022-07-25T23:28:06.410Z,1.10
2022-07-25T23:30:36.710Z,1.05
2022-07-25T23:33:07.082Z,0.80
2022-07-25T23:35:33.997Z,1.17
2022-07-25T23:38:00.987Z,2.03
2022-07-25T23:40:27.537Z,0.95
2022-07-25T23:42:54.408Z,0.93
2022-07-25T23:45:21.985Z,1.08
2022-07-25T23:47:51.503Z,0.90
2022-07-25T23:50:19.535Z,0.88
2022-07-25T23:52:46.038Z,0.75
2022-07-25T23:55:12.582Z,0.98
2022-07-25T23:57:39.222Z,1.10
